Time;durP1;ratioP1;P1;durP2;ratioP2;P2;SDS_P1;SDS_P2;PMS_P1;PMS_P2;Temp;Humidity;BMP_temperature;BMP_pressure;BME280_temperature;BME280_humidity;BME280_pressure;Samples;Min_cycle;Max_cycle;Signal;HPM_P1;HPM_P2
2021/10/16 00:00:12;;;;;;;9.13;5.10;;;6.80;99.90;;;;;;5025168;28;20784;-38
2021/10/16 00:02:38;;;;;;;6.70;4.73;;;6.60;99.90;;;;;;5025895;28;20833;-39
2021/10/16 00:05:05;;;;;;;7.03;4.67;;;6.70;99.90;;;;;;5025542;28;20405;-38
2021/10/16 00:07:32;;;;;;;5.77;3.90;;;6.90;99.90;;;;;;5026061;28;20443;-38
2021/10/16 00:09:58;;;;;;;6.60;4.80;;;6.70;99.90;;;;;;5017291;28;20462;-38
2021/10/16 00:12:24;;;;;;;6.90;4.27;;;6.90;99.90;;;;;;5025600;28;20444;-38
2021/10/16 00:14:50;;;;;;;6.50;3.83;;;6.80;99.90;;;;;;5025148;28;20421;-38
2021/10/16 00:17:16;;;;;;;6.27;3.73;;;6.60;99.90;;;;;;5024546;28;20189;-38
2021/10/16 00:19:41;;;;;;;6.43;4.43;;;6.70;99.90;;;;;;5025892;28;20417;-38
2021/10/16 00:22:07;;;;;;;5.90;4.13;;;6.60;99.90;;;;;;5024417;28;20348;-38
2021/10/16 00:24:33;;;;;;;7.23;4.50;;;6.80;99.90;;;;;;5017912;28;20194;-38
2021/10/16 00:26:59;;;;;;;6.87;4.83;;;6.70;99.90;;;;;;5022151;28;20661;-38
2021/10/16 00:29:25;;;;;;;5.70;4.00;;;7.00;99.90;;;;;;5025861;28;20507;-39
2021/10/16 00:31:51;;;;;;;10.20;3.90;;;6.70;99.90;;;;;;5025642;28;20469;-38
2021/10/16 00:34:17;;;;;;;6.70;3.47;;;6.80;99.90;;;;;;5025469;28;20272;-38
2021/10/16 00:36:42;;;;;;;6.93;3.73;;;6.70;99.90;;;;;;5025654;28;20823;-38
2021/10/16 00:39:08;;;;;;;5.53;3.80;;;6.50;99.90;;;;;;5021995;28;20754;-38
2021/10/16 00:41:33;;;;;;;6.20;3.77;;;6.50;99.90;;;;;;5018353;28;20380;-38
2021/10/16 00:44:16;;;;;;;5.30;3.63;;;6.40;99.90;;;;;;5025481;28;20194;-38
2021/10/16 00:46:42;;;;;;;6.13;3.37;;;6.50;99.90;;;;;;5014384;28;20566;-38
2021/10/16 00:49:09;;;;;;;5.60;3.93;;;6.70;99.90;;;;;;5025756;28;20984;-38
2021/10/16 00:51:34;;;;;;;6.77;3.60;;;6.50;99.90;;;;;;5025433;28;20548;-38
2021/10/16 00:54:01;;;;;;;5.80;3.60;;;6.60;99.90;;;;;;5023733;28;20523;-38
2021/10/16 00:56:27;;;;;;;7.47;4.00;;;6.60;99.90;;;;;;5016316;28;20683;-38
2021/10/16 00:58:54;;;;;;;6.40;3.13;;;6.40;99.90;;;;;;5024175;28;20474;-38
2021/10/16 01:01:20;;;;;;;7.80;3.93;;;6.40;99.90;;;;;;5025760;28;20425;-38
2021/10/16 01:03:46;;;;;;;6.70;3.63;;;6.50;99.90;;;;;;5024927;28;20421;-38
2021/10/16 01:06:12;;;;;;;6.60;3.43;;;6.20;99.90;;;;;;5026109;28;20482;-38
2021/10/16 01:08:38;;;;;;;6.43;3.27;;;6.20;99.90;;;;;;5029308;28;20437;-38
2021/10/16 01:11:05;;;;;;;7.40;3.47;;;6.30;99.90;;;;;;5021457;28;20222;-38
2021/10/16 01:13:31;;;;;;;6.70;3.43;;;6.40;99.90;;;;;;5028066;28;20444;-38
2021/10/16 01:15:58;;;;;;;8.53;3.57;;;6.30;99.90;;;;;;5029462;28;20451;-38
2021/10/16 01:18:25;;;;;;;7.60;3.40;;;6.30;99.90;;;;;;5029022;28;20551;-38
2021/10/16 01:21:09;;;;;;;5.23;3.37;;;6.40;99.90;;;;;;5038874;28;20849;-38
2021/10/16 01:23:36;;;;;;;7.67;3.83;;;6.20;99.90;;;;;;5048163;28;20455;-38
2021/10/16 01:26:03;;;;;;;5.53;3.03;;;6.20;99.90;;;;;;5018725;28;20449;-38
2021/10/16 01:28:30;;;;;;;7.20;3.60;;;6.20;99.90;;;;;;5027822;28;20482;-38
2021/10/16 01:30:57;;;;;;;7.00;3.30;;;6.30;99.90;;;;;;5028797;28;20464;-38
2021/10/16 01:33:29;;;;;;;4.80;2.93;;;6.30;99.90;;;;;;5027973;28;20460;-38
2021/10/16 01:36:03;;;;;;;6.83;3.23;;;6.20;99.90;;;;;;5028976;28;20428;-38
2021/10/16 01:38:30;;;;;;;11.73;3.57;;;6.10;99.90;;;;;;5027707;28;20421;-38
2021/10/16 01:40:56;;;;;;;10.70;3.93;;;6.40;99.90;;;;;;5023417;28;20429;-38
2021/10/16 01:43:23;;;;;;;8.20;3.50;;;6.10;99.90;;;;;;5027631;28;20432;-38
2021/10/16 01:45:52;;;;;;;6.03;3.50;;;6.40;99.90;;;;;;5028172;28;20498;-38
2021/10/16 01:48:27;;;;;;;7.30;3.07;;;6.10;99.90;;;;;;5028890;28;20785;-38
2021/10/16 01:50:54;;;;;;;6.63;3.20;;;6.20;99.90;;;;;;5028474;28;20507;-38
2021/10/16 01:53:20;;;;;;;8.63;3.70;;;6.60;99.90;;;;;;5028161;28;20555;-37
2021/10/16 01:55:47;;;;;;;6.47;3.53;;;6.50;99.90;;;;;;5017255;28;20445;-38
2021/10/16 01:58:14;;;;;;;2.73;2.30;;;6.50;99.90;;;;;;5024991;28;20516;-38
2021/10/16 02:00:44;;;;;;;6.77;3.50;;;6.40;99.90;;;;;;5025174;28;20924;-38
2021/10/16 02:03:11;;;;;;;4.93;3.87;;;6.50;99.90;;;;;;5027669;28;20437;-38
2021/10/16 02:05:41;;;;;;;7.50;3.50;;;6.40;99.90;;;;;;5028235;28;20425;-38
2021/10/16 02:08:07;;;;;;;5.53;3.23;;;6.30;99.90;;;;;;5028121;28;20425;-38
2021/10/16 02:10:33;;;;;;;6.97;4.10;;;6.30;99.90;;;;;;5022470;28;20550;-38
2021/10/16 02:12:58;;;;;;;5.50;3.90;;;6.40;99.90;;;;;;5021771;28;20194;-38
2021/10/16 02:15:24;;;;;;;6.40;3.40;;;6.40;99.90;;;;;;5027784;28;20190;-38
2021/10/16 02:17:50;;;;;;;6.90;3.40;;;6.80;99.90;;;;;;5027439;28;20196;-38
2021/10/16 02:20:15;;;;;;;3.80;3.40;;;6.80;99.90;;;;;;5032365;28;20186;-39
2021/10/16 02:22:41;;;;;;;5.90;3.33;;;6.40;99.90;;;;;;5047720;28;20200;-38
2021/10/16 02:25:07;;;;;;;12.30;4.73;;;6.50;99.90;;;;;;5038191;28;20202;-38
2021/10/16 02:27:33;;;;;;;8.17;3.63;;;6.40;99.90;;;;;;5023108;28;20759;-38
2021/10/16 02:29:59;;;;;;;5.57;3.00;;;6.50;99.90;;;;;;5027772;28;20473;-38
2021/10/16 02:32:24;;;;;;;6.83;3.83;;;6.40;99.90;;;;;;5027848;28;20197;-38
2021/10/16 02:34:50;;;;;;;8.63;3.73;;;6.20;99.90;;;;;;5025754;28;20197;-38
2021/10/16 02:37:15;;;;;;;5.73;3.30;;;6.30;99.90;;;;;;5027706;28;20548;-38
2021/10/16 02:39:41;;;;;;;6.40;3.47;;;6.20;99.90;;;;;;5026035;28;20183;-38
2021/10/16 02:42:07;;;;;;;5.23;3.67;;;6.10;99.90;;;;;;5022418;28;20548;-38
2021/10/16 02:44:33;;;;;;;7.90;3.27;;;6.10;99.90;;;;;;5026865;28;20200;-38
2021/10/16 02:46:58;;;;;;;6.70;4.17;;;6.20;99.90;;;;;;5027522;28;20270;-38
2021/10/16 02:49:24;;;;;;;11.10;5.20;;;5.90;99.90;;;;;;5027531;28;20205;-39
2021/10/16 02:51:50;;;;;;;10.47;3.70;;;6.10;99.90;;;;;;5026935;28;20285;-38
2021/10/16 02:54:16;;;;;;;7.43;4.03;;;6.00;99.90;;;;;;5026580;28;20851;-38
2021/10/16 02:56:41;;;;;;;7.50;4.27;;;6.10;99.90;;;;;;5019043;28;20212;-38
2021/10/16 02:59:07;;;;;;;7.30;3.93;;;6.10;99.90;;;;;;5027223;28;20183;-38
2021/10/16 03:01:33;;;;;;;8.93;3.70;;;6.00;99.90;;;;;;5027256;28;20190;-38
2021/10/16 03:03:58;;;;;;;6.53;4.20;;;6.20;99.90;;;;;;5026483;28;20241;-38
2021/10/16 03:06:24;;;;;;;5.53;3.67;;;6.20;99.90;;;;;;5027558;28;20463;-38
2021/10/16 03:08:50;;;;;;;5.60;3.43;;;6.00;99.90;;;;;;5026927;28;20488;-38
2021/10/16 03:11:15;;;;;;;4.37;3.43;;;6.10;99.90;;;;;;5017671;28;20261;-38
2021/10/16 03:13:41;;;;;;;6.47;4.10;;;5.90;99.90;;;;;;5026072;28;20186;-38
2021/10/16 03:16:07;;;;;;;5.87;3.90;;;6.00;99.90;;;;;;5026897;28;20194;-38
2021/10/16 03:18:33;;;;;;;13.93;4.20;;;6.10;99.90;;;;;;5026659;28;20423;-38
2021/10/16 03:20:59;;;;;;;7.57;4.10;;;6.10;99.90;;;;;;5026805;28;20260;-38
2021/10/16 03:23:25;;;;;;;8.13;4.30;;;6.10;99.90;;;;;;5044328;28;20446;-38
2021/10/16 03:25:51;;;;;;;10.80;5.07;;;6.20;99.90;;;;;;5032375;28;21099;-38
2021/10/16 03:28:17;;;;;;;6.13;4.47;;;6.40;99.90;;;;;;5024221;28;20631;-38
2021/10/16 03:30:43;;;;;;;6.03;4.03;;;6.50;99.90;;;;;;5026424;28;20252;-38
2021/10/16 03:33:08;;;;;;;7.03;4.40;;;6.20;99.90;;;;;;5020466;28;20191;-38
2021/10/16 03:35:35;;;;;;;6.27;4.30;;;6.30;99.90;;;;;;5026449;28;20421;-38
2021/10/16 03:38:00;;;;;;;10.17;5.10;;;6.40;99.90;;;;;;5025115;28;20650;-38
2021/10/16 03:40:26;;;;;;;11.10;5.80;;;6.40;99.90;;;;;;5023869;28;20489;-38
2021/10/16 03:42:52;;;;;;;7.20;4.30;;;6.20;99.90;;;;;;5023260;28;20225;-38
2021/10/16 03:45:20;;;;;;;8.10;4.20;;;6.30;99.90;;;;;;5026010;28;20464;-38
2021/10/16 03:47:46;;;;;;;5.80;4.53;;;6.30;99.90;;;;;;5026041;28;20501;-38
2021/10/16 03:50:11;;;;;;;5.07;4.23;;;6.20;99.90;;;;;;5026073;28;20580;-38
2021/10/16 03:52:38;;;;;;;6.87;4.90;;;6.30;99.90;;;;;;5026441;28;20421;-38
2021/10/16 03:55:05;;;;;;;9.07;5.77;;;6.30;99.90;;;;;;5025847;28;20186;-38
2021/10/16 03:57:31;;;;;;;6.90;4.63;;;6.30;99.90;;;;;;5018745;28;20928;-38
2021/10/16 03:59:57;;;;;;;8.53;4.77;;;6.40;99.90;;;;;;5026165;28;20453;-38
2021/10/16 04:02:25;;;;;;;9.93;5.03;;;6.30;99.90;;;;;;5026031;28;20193;-38
2021/10/16 04:04:51;;;;;;;8.50;5.07;;;6.60;99.90;;;;;;5025344;28;20787;-39
2021/10/16 04:07:17;;;;;;;4.87;4.30;;;6.60;99.90;;;;;;5025863;28;20432;-37
2021/10/16 04:09:42;;;;;;;5.97;3.80;;;6.90;99.90;;;;;;5023144;28;20468;-38
2021/10/16 04:12:08;;;;;;;6.60;4.50;;;6.80;99.90;;;;;;5016553;28;20198;-38
2021/10/16 04:14:34;;;;;;;5.53;4.30;;;6.70;99.90;;;;;;5025151;28;20551;-38
2021/10/16 04:17:00;;;;;;;6.83;4.63;;;6.40;99.90;;;;;;5024133;28;20182;-38
2021/10/16 04:19:26;;;;;;;7.30;5.00;;;6.40;99.90;;;;;;5026268;28;20409;-39
2021/10/16 04:21:51;;;;;;;8.80;4.80;;;6.40;99.90;;;;;;5019760;28;20186;-38
2021/10/16 04:24:17;;;;;;;11.87;4.20;;;6.70;99.90;;;;;;5022091;28;20201;-38
2021/10/16 04:26:43;;;;;;;6.67;4.47;;;6.60;99.90;;;;;;5016736;28;20228;-38
2021/10/16 04:29:09;;;;;;;9.90;5.10;;;6.60;99.90;;;;;;5021856;28;20665;-38
2021/10/16 04:31:35;;;;;;;5.90;4.47;;;6.60;99.90;;;;;;5025348;28;20726;-38
2021/10/16 04:34:02;;;;;;;9.80;5.70;;;6.70;99.90;;;;;;5025211;28;20452;-38
2021/10/16 04:36:29;;;;;;;6.80;4.37;;;6.50;99.90;;;;;;5022256;28;20293;-37
2021/10/16 04:38:55;;;;;;;9.13;4.37;;;6.40;99.90;;;;;;5022548;28;20619;-38
2021/10/16 04:41:22;;;;;;;6.63;4.93;;;6.50;99.90;;;;;;5020383;28;20438;-38
2021/10/16 04:43:48;;;;;;;8.50;4.87;;;6.40;99.90;;;;;;5023539;28;20425;-38
2021/10/16 04:46:13;;;;;;;9.17;5.10;;;6.40;99.90;;;;;;5029541;28;20498;-38
2021/10/16 04:48:48;;;;;;;8.87;5.40;;;6.30;99.90;;;;;;5029790;28;20195;-38
2021/10/16 04:51:14;;;;;;;7.80;5.23;;;6.30;99.90;;;;;;5030012;28;20288;-38
2021/10/16 04:53:40;;;;;;;11.33;5.50;;;6.20;99.90;;;;;;5028783;28;20429;-38
2021/10/16 04:56:06;;;;;;;9.07;5.10;;;6.40;99.90;;;;;;5024528;28;20281;-39
2021/10/16 04:58:32;;;;;;;11.67;4.90;;;6.10;99.90;;;;;;5024005;28;20682;-38
2021/10/16 05:00:59;;;;;;;10.77;5.77;;;6.20;99.90;;;;;;5029688;28;20468;-38
2021/10/16 05:03:25;;;;;;;10.97;6.30;;;6.20;99.90;;;;;;5028709;28;20958;-38
2021/10/16 05:05:53;;;;;;;11.37;6.00;;;6.40;99.90;;;;;;5029311;28;20453;-38
2021/10/16 05:08:19;;;;;;;8.43;5.70;;;6.70;99.90;;;;;;5029346;28;20214;-38
2021/10/16 05:10:45;;;;;;;8.87;5.30;;;6.30;99.90;;;;;;5029715;28;20729;-38
2021/10/16 05:13:10;;;;;;;6.00;5.10;;;6.40;99.90;;;;;;5018818;28;20765;-38
2021/10/16 05:15:36;;;;;;;9.90;5.03;;;6.10;99.90;;;;;;5029249;28;20183;-38
2021/10/16 05:18:02;;;;;;;7.60;5.10;;;6.10;99.90;;;;;;5029028;28;20572;-38
2021/10/16 05:20:27;;;;;;;8.40;5.50;;;6.20;99.90;;;;;;5034947;28;20192;-38
2021/10/16 05:22:53;;;;;;;6.80;5.00;;;6.10;99.90;;;;;;5048503;28;20676;-38
2021/10/16 05:25:19;;;;;;;12.00;5.23;;;6.20;99.90;;;;;;5047259;28;20228;-38
2021/10/16 05:27:45;;;;;;;9.40;5.70;;;6.10;99.90;;;;;;5021909;28;20733;-38
2021/10/16 05:30:10;;;;;;;7.23;5.33;;;6.00;99.90;;;;;;5028391;28;20461;-38
2021/10/16 05:32:36;;;;;;;6.60;4.67;;;5.90;99.90;;;;;;5029224;28;20285;-38
2021/10/16 05:35:03;;;;;;;8.20;5.17;;;6.00;99.90;;;;;;5027906;28;20417;-38
2021/10/16 05:37:29;;;;;;;8.63;5.43;;;6.00;99.90;;;;;;5028791;28;20428;-38
2021/10/16 05:39:54;;;;;;;10.00;5.70;;;6.10;99.90;;;;;;5027205;28;20421;-38
2021/10/16 05:42:20;;;;;;;6.90;5.20;;;6.00;99.90;;;;;;5023703;28;21103;-38
2021/10/16 05:44:46;;;;;;;8.43;5.83;;;6.20;99.90;;;;;;5031134;28;20183;-38
2021/10/16 05:47:11;;;;;;;7.00;4.90;;;6.00;99.90;;;;;;5028454;28;20190;-38
2021/10/16 05:49:37;;;;;;;12.17;6.27;;;6.00;99.90;;;;;;5028277;28;20985;-38
2021/10/16 05:52:04;;;;;;;8.27;5.10;;;6.00;99.90;;;;;;5028793;28;20598;-38
2021/10/16 05:54:30;;;;;;;14.03;5.70;;;5.90;99.90;;;;;;5027637;28;20194;-38
2021/10/16 05:56:55;;;;;;;7.73;5.33;;;5.90;99.90;;;;;;5020395;28;20703;-39
2021/10/16 05:59:21;;;;;;;10.73;6.40;;;6.10;99.90;;;;;;5024882;28;20669;-38
2021/10/16 06:01:47;;;;;;;7.07;5.30;;;5.80;99.90;;;;;;5028102;28;20647;-38
2021/10/16 06:04:12;;;;;;;8.30;5.50;;;5.90;99.90;;;;;;5027356;28;20281;-38
2021/10/16 06:06:38;;;;;;;13.07;6.90;;;6.10;99.90;;;;;;5026595;28;20208;-38
2021/10/16 06:09:04;;;;;;;9.53;6.63;;;6.00;99.90;;;;;;5028106;28;20202;-38
2021/10/16 06:11:29;;;;;;;9.73;6.03;;;6.30;99.90;;;;;;5024796;28;20643;-38
2021/10/16 06:13:55;;;;;;;10.37;5.20;;;6.30;99.90;;;;;;5026885;28;20546;-38
2021/10/16 06:16:21;;;;;;;12.10;6.33;;;6.40;99.90;;;;;;5027784;28;20552;-38
2021/10/16 06:18:46;;;;;;;11.27;5.93;;;6.60;99.90;;;;;;5027835;28;20190;-38
2021/10/16 06:21:12;;;;;;;9.77;6.03;;;6.50;99.90;;;;;;5039908;28;20193;-38
2021/10/16 06:23:38;;;;;;;8.23;5.43;;;6.70;99.90;;;;;;5047220;28;20724;-38
2021/10/16 06:26:04;;;;;;;9.23;5.27;;;6.50;99.90;;;;;;5047813;28;20455;-38
2021/10/16 06:28:30;;;;;;;10.50;5.70;;;6.60;99.90;;;;;;5014235;28;20473;-38
2021/10/16 06:30:56;;;;;;;6.33;5.13;;;6.60;99.90;;;;;;5027764;28;20198;-38
2021/10/16 06:33:24;;;;;;;10.83;6.37;;;6.60;99.90;;;;;;5026629;28;20783;-38
2021/10/16 06:35:51;;;;;;;8.13;5.73;;;6.70;99.90;;;;;;5027860;28;20197;-38
2021/10/16 06:38:16;;;;;;;7.67;5.37;;;6.50;99.90;;;;;;5025958;28;20421;-38
2021/10/16 06:40:42;;;;;;;12.80;5.70;;;6.70;99.90;;;;;;5028012;28;20435;-38
2021/10/16 06:43:08;;;;;;;10.30;6.13;;;6.50;99.90;;;;;;5017379;28;20259;-38
2021/10/16 06:45:33;;;;;;;9.20;5.43;;;6.40;99.90;;;;;;5027138;28;20289;-38
2021/10/16 06:47:59;;;;;;;6.50;5.00;;;6.40;99.90;;;;;;5025704;28;20222;-38
2021/10/16 06:50:25;;;;;;;8.90;6.50;;;6.60;99.90;;;;;;5027695;28;20244;-38
2021/10/16 06:52:50;;;;;;;10.10;7.90;;;6.60;99.90;;;;;;5026627;28;20274;-38
2021/10/16 06:55:16;;;;;;;8.87;6.20;;;6.90;99.90;;;;;;5027188;28;20278;-39
2021/10/16 06:57:42;;;;;;;11.40;7.00;;;7.10;99.90;;;;;;5017531;28;20199;-38
2021/10/16 07:00:08;;;;;;;10.43;6.80;;;7.20;99.90;;;;;;5023041;28;20197;-39
2021/10/16 07:02:34;;;;;;;11.50;7.23;;;7.20;99.90;;;;;;5020035;28;20217;-38
2021/10/16 07:04:59;;;;;;;10.53;6.77;;;7.20;99.90;;;;;;5028542;28;21070;-38
2021/10/16 07:07:25;;;;;;;11.90;7.90;;;7.10;99.90;;;;;;5026926;28;20198;-38
2021/10/16 07:09:51;;;;;;;12.40;8.10;;;7.20;99.90;;;;;;5026707;28;20281;-38
2021/10/16 07:12:17;;;;;;;10.47;7.40;;;7.30;99.90;;;;;;5023306;28;20524;-38
2021/10/16 07:14:43;;;;;;;8.73;7.37;;;7.40;99.90;;;;;;5025943;28;20208;-38
2021/10/16 07:17:08;;;;;;;13.93;7.50;;;7.50;99.90;;;;;;5029307;28;20637;-38
2021/10/16 07:19:34;;;;;;;14.90;7.83;;;7.60;99.90;;;;;;5026266;28;20339;-38
2021/10/16 07:22:00;;;;;;;13.80;8.30;;;7.90;99.90;;;;;;5026959;28;20609;-38
2021/10/16 07:24:26;;;;;;;11.23;7.20;;;7.60;99.90;;;;;;5026132;28;20497;-39
2021/10/16 07:26:54;;;;;;;10.27;8.33;;;7.90;99.90;;;;;;5023944;28;20440;-38
2021/10/16 07:29:22;;;;;;;10.90;7.97;;;8.00;99.90;;;;;;5024224;28;20205;-38
2021/10/16 07:31:49;;;;;;;14.83;8.13;;;8.20;99.90;;;;;;5026156;28;20576;-38
2021/10/16 07:34:15;;;;;;;9.90;7.90;;;8.30;99.90;;;;;;5025869;28;20418;-38
2021/10/16 07:36:41;;;;;;;13.87;9.00;;;8.50;99.90;;;;;;5026542;28;20893;-38
2021/10/16 07:39:08;;;;;;;12.07;8.97;;;8.40;99.90;;;;;;5023225;28;20265;-38
2021/10/16 07:41:36;;;;;;;13.43;7.53;;;8.50;99.90;;;;;;5034441;28;20581;-38
2021/10/16 07:44:03;;;;;;;11.50;8.37;;;8.50;99.90;;;;;;5015915;28;20441;-38
2021/10/16 07:46:29;;;;;;;12.50;8.53;;;8.50;99.90;;;;;;5025560;28;20424;-38
2021/10/16 07:48:54;;;;;;;10.70;8.47;;;8.50;99.90;;;;;;5026116;28;20796;-38
2021/10/16 07:51:20;;;;;;;16.60;7.80;;;8.60;99.90;;;;;;5026401;28;20293;-38
2021/10/16 07:53:46;;;;;;;14.13;7.93;;;8.60;99.90;;;;;;5025664;28;20265;-38
2021/10/16 07:56:11;;;;;;;11.13;7.93;;;8.60;99.90;;;;;;5026008;28;20214;-38
2021/10/16 07:58:39;;;;;;;16.80;7.47;;;8.70;99.90;;;;;;5014886;28;20186;-39
2021/10/16 08:01:06;;;;;;;12.40;7.83;;;8.80;99.90;;;;;;5024663;28;20201;-39
2021/10/16 08:03:31;;;;;;;16.20;7.60;;;8.80;99.90;;;;;;5025623;28;20612;-38
2021/10/16 08:05:57;;;;;;;12.53;7.63;;;8.90;99.90;;;;;;5026029;28;20780;-38
2021/10/16 08:08:23;;;;;;;11.70;8.27;;;9.00;99.90;;;;;;5025878;28;20194;-38
2021/10/16 08:10:48;;;;;;;14.17;7.10;;;8.90;99.90;;;;;;5025945;28;20210;-38
2021/10/16 08:13:14;;;;;;;15.67;8.27;;;8.90;99.90;;;;;;5014169;28;20205;-38
2021/10/16 08:15:40;;;;;;;13.43;8.77;;;9.00;99.90;;;;;;5025214;28;20182;-38
2021/10/16 08:18:06;;;;;;;25.20;9.30;;;9.00;99.90;;;;;;5025372;28;20456;-37
2021/10/16 08:20:32;;;;;;;9.93;7.20;;;9.20;99.90;;;;;;5025928;28;20189;-38
2021/10/16 08:22:58;;;;;;;17.57;8.30;;;9.10;99.90;;;;;;5039991;28;20212;-38
2021/10/16 08:25:24;;;;;;;11.37;7.60;;;9.20;99.90;;;;;;5045836;28;20428;-38
2021/10/16 08:27:51;;;;;;;12.20;7.43;;;9.20;99.90;;;;;;5034144;28;20439;-38
2021/10/16 08:30:18;;;;;;;12.30;8.40;;;9.30;99.90;;;;;;5023850;28;20476;-39
2021/10/16 08:32:43;;;;;;;11.70;5.90;;;9.30;99.90;;;;;;5025049;28;20830;-38
2021/10/16 08:35:10;;;;;;;9.70;6.37;;;9.40;99.90;;;;;;5025614;28;20421;-38
2021/10/16 08:37:36;;;;;;;13.67;5.33;;;9.30;99.90;;;;;;5024038;28;20182;-38
2021/10/16 08:40:03;;;;;;;8.23;5.23;;;9.40;99.90;;;;;;5025594;28;20444;-38
2021/10/16 08:42:28;;;;;;;11.73;4.90;;;9.60;99.90;;;;;;5022255;28;20517;-38
2021/10/16 08:44:58;;;;;;;9.93;5.80;;;9.60;99.90;;;;;;5018917;28;20995;-38
2021/10/16 08:47:30;;;;;;;10.23;6.43;;;9.70;99.90;;;;;;5025265;28;20293;-38
2021/10/16 08:49:58;;;;;;;9.87;6.87;;;9.90;99.90;;;;;;5025620;28;20468;-38
2021/10/16 08:52:24;;;;;;;8.30;5.40;;;9.90;99.90;;;;;;5025152;28;20429;-38
2021/10/16 08:54:50;;;;;;;10.23;6.43;;;10.10;99.90;;;;;;5025102;28;20472;-38
2021/10/16 08:57:16;;;;;;;13.40;5.50;;;10.00;99.90;;;;;;5024084;28;20194;-38
2021/10/16 08:59:41;;;;;;;13.90;6.97;;;10.30;99.90;;;;;;5016039;28;20259;-38
2021/10/16 09:02:08;;;;;;;12.97;5.90;;;10.00;99.90;;;;;;5023723;28;20237;-38
2021/10/16 09:04:35;;;;;;;14.73;5.17;;;10.10;99.90;;;;;;5025035;28;20627;-38
2021/10/16 09:07:20;;;;;;;6.70;4.83;;;10.40;99.90;;;;;;5025200;28;20861;-38
2021/10/16 09:09:48;;;;;;;8.13;5.10;;;10.30;99.90;;;;;;5025483;28;20837;-38
2021/10/16 09:12:15;;;;;;;8.57;4.90;;;10.30;99.90;;;;;;5025039;28;20425;-38
2021/10/16 09:14:46;;;;;;;13.37;5.70;;;10.40;99.90;;;;;;5009862;28;20778;-38
2021/10/16 09:17:13;;;;;;;13.90;4.70;;;10.60;99.90;;;;;;5021534;28;20445;-38
2021/10/16 09:19:39;;;;;;;9.33;4.90;;;10.50;99.90;;;;;;5023948;28;20427;-38
2021/10/16 09:22:10;;;;;;;15.43;4.33;;;11.00;99.90;;;;;;5032640;28;20501;-38
2021/10/16 09:24:45;;;;;;;8.17;3.63;;;10.90;99.90;;;;;;5044603;28;20649;-38
2021/10/16 09:27:11;;;;;;;7.03;3.30;;;11.10;99.90;;;;;;5045403;28;20418;-38
2021/10/16 09:29:41;;;;;;;5.03;2.53;;;11.00;99.90;;;;;;5017029;28;20435;-38
2021/10/16 09:32:11;;;;;;;10.87;3.23;;;11.40;99.90;;;;;;5028861;28;20755;-38
2021/10/16 09:34:42;;;;;;;8.30;2.90;;;11.50;99.90;;;;;;5027837;28;20455;-39
2021/10/16 09:37:09;;;;;;;9.20;3.10;;;11.70;99.90;;;;;;5029041;28;20793;-38
2021/10/16 09:39:37;;;;;;;8.50;3.20;;;11.90;99.90;;;;;;5026985;28;20503;-38
2021/10/16 09:42:04;;;;;;;8.77;3.33;;;12.10;99.90;;;;;;5029057;28;20890;-38
2021/10/16 09:44:31;;;;;;;9.93;3.23;;;12.20;99.90;;;;;;5017052;28;20442;-39
2021/10/16 09:46:58;;;;;;;8.60;3.00;;;12.40;99.90;;;;;;5028311;28;20464;-39
2021/10/16 09:49:40;;;;;;;9.60;3.00;;;12.50;99.90;;;;;;5028381;28;20437;-39
2021/10/16 09:52:09;;;;;;;10.13;2.57;;;12.90;99.90;;;;;;5028645;28;20452;-38
2021/10/16 09:54:36;;;;;;;8.73;2.37;;;13.10;99.90;;;;;;5027814;28;20776;-38
2021/10/16 09:57:13;;;;;;;12.67;2.60;;;13.20;99.90;;;;;;5028487;28;21029;-38
2021/10/16 09:59:40;;;;;;;9.03;3.00;;;13.40;99.90;;;;;;5018604;28;20421;-38
2021/10/16 10:02:07;;;;;;;8.03;2.20;;;13.50;99.90;;;;;;5028124;28;20421;-38
2021/10/16 10:04:40;;;;;;;7.63;1.67;;;13.30;99.90;;;;;;5026141;28;20759;-38
2021/10/16 10:07:07;;;;;;;6.47;2.00;;;13.10;99.90;;;;;;5028661;28;20448;-38
2021/10/16 10:09:33;;;;;;;7.03;1.87;;;12.90;99.90;;;;;;5027911;28;20421;-38
2021/10/16 10:12:00;;;;;;;7.53;2.00;;;12.90;99.90;;;;;;5027051;28;20519;-38
2021/10/16 10:14:27;;;;;;;5.60;1.80;;;13.00;99.90;;;;;;5016847;28;20439;-40
2021/10/16 10:17:04;;;;;;;4.67;1.70;;;13.20;99.90;;;;;;5027898;28;20432;-38
2021/10/16 10:19:31;;;;;;;6.30;2.47;;;13.30;99.90;;;;;;5028658;28;20425;-39
2021/10/16 10:21:57;;;;;;;11.23;2.43;;;13.50;99.90;;;;;;5028438;28;20766;-40
2021/10/16 10:24:39;;;;;;;8.10;2.10;;;13.60;99.90;;;;;;5040302;28;20978;-38
2021/10/16 10:27:07;;;;;;;3.60;1.63;;;13.50;99.90;;;;;;5047645;28;20481;-38
2021/10/16 10:29:36;;;;;;;9.03;2.40;;;13.60;99.90;;;;;;5024234;28;20463;-39
2021/10/16 10:32:04;;;;;;;4.60;2.00;;;13.70;99.90;;;;;;5027746;28;20497;-38
2021/10/16 10:34:31;;;;;;;5.80;1.93;;;13.80;99.90;;;;;;5025768;28;20651;-38
2021/10/16 10:37:12;;;;;;;4.63;1.77;;;13.90;99.90;;;;;;5027502;28;20950;-40
2021/10/16 10:39:39;;;;;;;5.47;1.40;;;13.90;99.90;;;;;;5025118;28;20421;-39
2021/10/16 10:42:13;;;;;;;10.00;2.37;;;13.90;99.90;;;;;;5027240;28;20428;-39
2021/10/16 10:44:43;;;;;;;4.03;1.60;;;13.80;99.90;;;;;;5019559;28;20425;-39
2021/10/16 10:47:21;;;;;;;5.23;1.83;;;13.90;99.90;;;;;;5026970;28;20421;-39
2021/10/16 10:49:48;;;;;;;4.87;1.80;;;13.90;99.90;;;;;;5027096;28;20428;-38
2021/10/16 10:52:16;;;;;;;4.73;1.80;;;14.00;99.90;;;;;;5026936;28;20519;-38
2021/10/16 10:55:06;;;;;;;6.17;2.00;;;14.00;99.90;;;;;;5026915;28;20417;-39
2021/10/16 10:57:44;;;;;;;5.90;2.13;;;14.00;99.90;;;;;;5027126;28;20934;-39
2021/10/16 11:00:15;;;;;;;8.13;2.40;;;14.00;99.90;;;;;;5013348;28;20569;-38
2021/10/16 11:02:41;;;;;;;4.00;1.47;;;14.10;99.90;;;;;;5024918;28;20417;-38
2021/10/16 11:05:34;;;;;;;5.37;1.87;;;14.10;99.90;;;;;;5027105;28;20428;-38
2021/10/16 11:08:14;;;;;;;6.00;2.07;;;14.20;99.90;;;;;;5026288;28;20425;-38
2021/10/16 11:10:42;;;;;;;4.47;1.40;;;14.20;99.90;;;;;;5013552;28;20479;-38
2021/10/16 11:13:13;;;;;;;3.23;1.43;;;14.30;99.90;;;;;;5026231;28;20486;-39
2021/10/16 11:15:40;;;;;;;4.27;2.00;;;14.30;99.10;;;;;;5020446;28;20509;-38
2021/10/16 11:18:13;;;;;;;5.90;1.77;;;14.40;99.90;;;;;;5026705;28;20426;-38
2021/10/16 11:20:40;;;;;;;7.40;2.27;;;14.40;99.90;;;;;;5025563;28;20418;-39
2021/10/16 11:23:07;;;;;;;7.50;1.70;;;14.30;99.90;;;;;;5034777;28;20413;-38
2021/10/16 11:25:34;;;;;;;5.50;2.67;;;14.30;99.90;;;;;;5046323;28;20428;-39
2021/10/16 11:28:10;;;;;;;6.63;2.17;;;14.50;99.90;;;;;;5046340;28;20432;-39
2021/10/16 11:30:46;;;;;;;6.17;2.20;;;14.70;99.90;;;;;;5019730;28;20460;-38
2021/10/16 11:33:15;;;;;;;2.97;1.60;;;15.00;99.90;;;;;;5024475;28;20507;-39
2021/10/16 11:35:43;;;;;;;4.87;2.30;;;15.20;99.00;;;;;;5026627;28;20457;-39
2021/10/16 11:38:12;;;;;;;6.43;3.00;;;15.20;99.20;;;;;;5024800;28;20516;-39
2021/10/16 11:40:38;;;;;;;4.37;1.80;;;15.30;99.30;;;;;;5026750;28;20456;-38
2021/10/16 11:43:10;;;;;;;11.87;2.57;;;15.30;99.50;;;;;;5025671;28;21013;-39
2021/10/16 11:45:37;;;;;;;5.57;2.03;;;15.00;99.20;;;;;;5017748;28;20440;-39
2021/10/16 11:48:06;;;;;;;6.03;2.00;;;14.90;99.50;;;;;;5025975;28;20413;-39
2021/10/16 11:50:36;;;;;;;5.07;1.93;;;14.70;99.90;;;;;;5025952;28;20483;-38
2021/10/16 11:53:25;;;;;;;7.67;2.17;;;14.60;99.90;;;;;;5024365;28;20453;-40
2021/10/16 11:56:00;;;;;;;4.97;2.30;;;14.50;99.50;;;;;;5026023;28;20773;-38
2021/10/16 11:58:28;;;;;;;8.13;2.40;;;14.50;99.90;;;;;;5024664;28;20473;-38
2021/10/16 12:00:58;;;;;;;5.37;3.00;;;14.80;99.90;;;;;;5014646;28;20496;-38
2021/10/16 12:03:31;;;;;;;7.17;2.30;;;14.80;98.50;;;;;;5024064;28;20818;-38
2021/10/16 12:06:03;;;;;;;5.00;2.13;;;14.60;98.60;;;;;;5045790;28;20462;-39
2021/10/16 12:08:32;;;;;;;3.30;1.80;;;14.40;98.60;;;;;;5038041;28;20822;-39
2021/10/16 12:11:07;;;;;;;7.83;2.47;;;14.30;99.90;;;;;;5044155;28;20513;-39
2021/10/16 12:13:57;;;;;;;6.70;3.60;;;14.20;99.90;;;;;;5045303;28;20432;-39
2021/10/16 12:16:35;;;;;;;7.80;3.20;;;14.20;99.90;;;;;;5015850;28;20703;-38
2021/10/16 12:19:03;;;;;;;10.20;3.60;;;14.00;99.90;;;;;;5025840;28;20424;-40
2021/10/16 12:21:34;;;;;;;8.87;3.13;;;14.00;99.90;;;;;;5027489;28;20425;-40
2021/10/16 12:24:20;;;;;;;9.37;3.00;;;14.10;99.90;;;;;;5041459;28;20420;-39
2021/10/16 12:26:48;;;;;;;6.67;2.93;;;13.90;99.90;;;;;;5045487;28;20822;-39
2021/10/16 12:29:28;;;;;;;5.93;2.93;;;14.00;99.90;;;;;;5039913;28;20437;-39
2021/10/16 12:31:54;;;;;;;11.20;3.37;;;14.00;99.90;;;;;;5019062;28;20471;-39
2021/10/16 12:34:33;;;;;;;6.77;3.20;;;13.90;99.90;;;;;;5024999;28;20769;-38
2021/10/16 12:37:01;;;;;;;7.63;3.70;;;13.80;99.90;;;;;;5025759;28;20202;-39
2021/10/16 12:39:40;;;;;;;8.23;3.50;;;13.60;99.90;;;;;;5024656;28;20763;-39
2021/10/16 12:42:14;;;;;;;9.40;3.80;;;13.50;99.90;;;;;;5025267;28;20564;-39
2021/10/16 12:44:43;;;;;;;7.20;3.37;;;13.40;99.90;;;;;;5020009;28;20438;-39
2021/10/16 12:47:08;;;;;;;8.30;3.97;;;13.40;99.90;;;;;;5021413;28;20432;-39
2021/10/16 12:49:35;;;;;;;10.00;3.70;;;13.40;99.90;;;;;;5025668;28;20421;-39
2021/10/16 12:52:04;;;;;;;7.60;3.23;;;13.40;99.90;;;;;;5025306;28;21086;-38